Time;durP1;ratioP1;P1;durP2;ratioP2;P2;SDS_P1;SDS_P2;PMS_P1;PMS_P2;Temp;Humidity;BMP_temperature;BMP_pressure;BME280_temperature;BME280_humidity;BME280_pressure;Samples;Min_cycle;Max_cycle;Signal;HPM_P1;HPM_P2
2023/08/19 00:00:22;;;;;;;26.10;18.45;;;;;;;;;;5029862;28;20496;-66
2023/08/19 00:02:49;;;;;;;26.88;18.70;;;;;;;;;;5024855;28;20108;-66
2023/08/19 00:05:17;;;;;;;25.80;18.20;;;;;;;;;;5020678;28;20104;-66
2023/08/19 00:07:46;;;;;;;27.58;17.67;;;;;;;;;;5028268;28;20422;-66
2023/08/19 00:10:14;;;;;;;28.88;18.48;;;;;;;;;;5028995;28;20489;-66
2023/08/19 00:12:41;;;;;;;28.27;18.08;;;;;;;;;;5026412;28;20053;-66
2023/08/19 00:15:08;;;;;;;25.98;18.38;;;;;;;;;;5030378;28;20076;-66
2023/08/19 00:17:36;;;;;;;25.88;17.92;;;;;;;;;;5025005;28;20053;-65
2023/08/19 00:20:05;;;;;;;29.13;18.45;;;;;;;;;;5027961;28;20042;-66
2023/08/19 00:22:32;;;;;;;27.75;18.77;;;;;;;;;;5029488;28;20087;-66
2023/08/19 00:25:01;;;;;;;28.52;18.10;;;;;;;;;;5027597;28;20053;-66
2023/08/19 00:27:29;;;;;;;25.98;17.85;;;;;;;;;;5024260;28;20134;-66
2023/08/19 00:29:57;;;;;;;24.25;17.55;;;;;;;;;;5027818;28;20041;-66
2023/08/19 00:32:24;;;;;;;28.00;18.48;;;;;;;;;;5027072;28;20048;-66
2023/08/19 00:34:51;;;;;;;29.23;18.58;;;;;;;;;;5025286;28;20056;-66
2023/08/19 00:37:19;;;;;;;26.95;18.27;;;;;;;;;;5027430;28;20626;-66
2023/08/19 00:39:46;;;;;;;27.65;17.85;;;;;;;;;;5017930;28;20081;-66
2023/08/19 00:42:15;;;;;;;25.40;17.77;;;;;;;;;;5020688;28;20492;-66
2023/08/19 00:44:42;;;;;;;24.45;17.70;;;;;;;;;;5030169;28;20108;-66
2023/08/19 00:47:09;;;;;;;27.05;17.65;;;;;;;;;;5028392;28;20052;-66
2023/08/19 00:49:37;;;;;;;30.13;17.98;;;;;;;;;;5017569;28;20058;-66
2023/08/19 00:52:04;;;;;;;27.55;18.08;;;;;;;;;;5027251;28;20128;-66
2023/08/19 00:54:32;;;;;;;28.27;18.35;;;;;;;;;;5023475;28;20045;-66
2023/08/19 00:56:59;;;;;;;24.85;18.55;;;;;;;;;;5028909;28;20397;-66
2023/08/19 00:59:28;;;;;;;25.25;18.20;;;;;;;;;;5021968;28;20053;-66
2023/08/19 01:01:55;;;;;;;27.33;18.08;;;;;;;;;;5024753;28;20049;-66
2023/08/19 01:04:23;;;;;;;27.70;17.60;;;;;;;;;;5026886;28;20076;-66
2023/08/19 01:06:55;;;;;;;27.83;18.25;;;;;;;;;;5026853;28;20513;-66
2023/08/19 01:09:29;;;;;;;27.25;17.45;;;;;;;;;;5029577;28;20054;-66
2023/08/19 01:12:00;;;;;;;26.50;17.85;;;;;;;;;;5028616;28;20091;-66
2023/08/19 01:14:35;;;;;;;28.83;18.92;;;;;;;;;;5029008;28;20041;-66
2023/08/19 01:17:04;;;;;;;28.55;17.80;;;;;;;;;;5028180;28;20041;-66
2023/08/19 01:19:32;;;;;;;24.77;18.13;;;;;;;;;;5029537;28;20119;-66
2023/08/19 01:22:02;;;;;;;28.17;18.35;;;;;;;;;;5026089;28;20050;-66
2023/08/19 01:24:35;;;;;;;26.02;18.23;;;;;;;;;;5029326;28;20046;-66
2023/08/19 01:27:03;;;;;;;26.63;17.35;;;;;;;;;;5027777;28;20083;-66
2023/08/19 01:29:30;;;;;;;27.05;18.60;;;;;;;;;;5029039;28;20553;-66
2023/08/19 01:31:58;;;;;;;27.77;17.35;;;;;;;;;;5024807;28;20416;-66
2023/08/19 01:34:25;;;;;;;28.38;18.13;;;;;;;;;;5023525;28;20400;-66
2023/08/19 01:36:56;;;;;;;28.85;18.25;;;;;;;;;;5023057;28;20064;-66
2023/08/19 01:39:24;;;;;;;35.25;18.58;;;;;;;;;;5027501;28;20056;-66
2023/08/19 01:41:53;;;;;;;24.42;17.23;;;;;;;;;;5023589;28;20053;-66
2023/08/19 01:44:20;;;;;;;28.48;18.40;;;;;;;;;;5031910;28;20049;-65
2023/08/19 01:46:48;;;;;;;27.10;17.15;;;;;;;;;;5030672;28;20053;-66
2023/08/19 01:49:15;;;;;;;27.73;17.40;;;;;;;;;;5032506;28;20045;-66
2023/08/19 01:51:42;;;;;;;27.58;18.35;;;;;;;;;;5029569;28;20408;-66
2023/08/19 01:54:09;;;;;;;28.58;18.33;;;;;;;;;;5031573;28;20053;-66
2023/08/19 01:56:37;;;;;;;27.42;18.17;;;;;;;;;;5023945;28;20046;-66
2023/08/19 01:59:06;;;;;;;25.83;16.95;;;;;;;;;;5033169;28;20060;-66
2023/08/19 02:01:33;;;;;;;26.42;17.70;;;;;;;;;;5033232;28;20053;-66
2023/08/19 02:04:00;;;;;;;27.63;17.48;;;;;;;;;;5031045;28;20121;-66
2023/08/19 02:06:29;;;;;;;25.35;17.10;;;;;;;;;;5033037;28;20500;-66
2023/08/19 02:08:56;;;;;;;25.35;17.17;;;;;;;;;;5025180;28;20045;-66
2023/08/19 02:11:23;;;;;;;25.85;16.73;;;;;;;;;;5027619;28;20053;-65
2023/08/19 02:13:50;;;;;;;27.00;17.80;;;;;;;;;;5028613;28;20129;-66
2023/08/19 02:16:19;;;;;;;24.98;17.40;;;;;;;;;;5033083;28;20389;-66
2023/08/19 02:18:46;;;;;;;24.95;17.35;;;;;;;;;;5031348;28;20065;-66
2023/08/19 02:21:13;;;;;;;24.55;17.08;;;;;;;;;;5032630;28;20433;-66
2023/08/19 02:23:41;;;;;;;26.92;18.02;;;;;;;;;;5032670;28;20064;-66
2023/08/19 02:26:08;;;;;;;26.77;17.63;;;;;;;;;;5032303;28;20124;-65
2023/08/19 02:28:35;;;;;;;26.30;18.20;;;;;;;;;;5030489;28;20042;-66
2023/08/19 02:31:03;;;;;;;24.35;17.50;;;;;;;;;;5031697;28;20045;-66
2023/08/19 02:33:31;;;;;;;31.15;18.17;;;;;;;;;;5027050;28;20107;-65
2023/08/19 02:35:59;;;;;;;27.25;18.13;;;;;;;;;;5030060;28;20042;-66
2023/08/19 02:38:26;;;;;;;26.75;17.83;;;;;;;;;;5028312;28;20057;-66
2023/08/19 02:40:54;;;;;;;24.50;17.52;;;;;;;;;;5027832;28;20046;-66
2023/08/19 02:43:21;;;;;;;29.27;17.55;;;;;;;;;;5031591;28;20045;-66
2023/08/19 02:45:48;;;;;;;26.73;18.10;;;;;;;;;;5024564;28;20049;-66
2023/08/19 02:48:15;;;;;;;29.80;17.65;;;;;;;;;;5031024;28;20045;-66
2023/08/19 02:50:44;;;;;;;27.75;17.48;;;;;;;;;;5031267;28;20421;-66
2023/08/19 02:53:11;;;;;;;25.95;17.63;;;;;;;;;;5029852;28;20389;-66
2023/08/19 02:55:41;;;;;;;23.70;16.83;;;;;;;;;;5032631;28;20042;-66
2023/08/19 02:58:08;;;;;;;25.70;16.95;;;;;;;;;;5027435;28;20398;-66
2023/08/19 03:00:36;;;;;;;25.85;16.95;;;;;;;;;;5032357;28;20054;-66
2023/08/19 03:03:05;;;;;;;25.00;16.83;;;;;;;;;;5031916;28;20099;-66
2023/08/19 03:05:32;;;;;;;29.55;18.33;;;;;;;;;;5030428;28;20131;-66
2023/08/19 03:08:01;;;;;;;27.63;18.65;;;;;;;;;;5026732;28;20053;-66
2023/08/19 03:10:28;;;;;;;29.10;18.30;;;;;;;;;;5030638;28;20508;-66
2023/08/19 03:12:58;;;;;;;26.77;16.98;;;;;;;;;;5030518;28;20056;-66
2023/08/19 03:15:25;;;;;;;29.23;17.85;;;;;;;;;;5022036;28;20073;-66
2023/08/19 03:17:53;;;;;;;29.42;18.73;;;;;;;;;;5032384;28;20049;-66
2023/08/19 03:20:20;;;;;;;26.90;17.85;;;;;;;;;;5030488;28;20057;-66
2023/08/19 03:22:47;;;;;;;24.73;17.52;;;;;;;;;;5031591;28;20506;-66
2023/08/19 03:25:16;;;;;;;32.40;17.33;;;;;;;;;;5030117;28;20050;-66
2023/08/19 03:27:44;;;;;;;27.40;17.25;;;;;;;;;;5030643;28;20485;-66
2023/08/19 03:30:11;;;;;;;28.15;18.20;;;;;;;;;;5029637;28;20045;-66
2023/08/19 03:32:38;;;;;;;30.50;17.90;;;;;;;;;;5030578;28;20054;-66
2023/08/19 03:35:06;;;;;;;26.80;16.88;;;;;;;;;;5027915;28;20050;-66
2023/08/19 03:37:33;;;;;;;27.63;17.65;;;;;;;;;;5029500;28;20048;-66
2023/08/19 03:40:00;;;;;;;26.13;17.13;;;;;;;;;;5030979;28;20053;-66
2023/08/19 03:42:30;;;;;;;28.33;18.00;;;;;;;;;;5030474;28;20054;-66
2023/08/19 03:44:57;;;;;;;29.60;17.42;;;;;;;;;;5030642;28;20045;-66
2023/08/19 03:47:24;;;;;;;28.40;16.95;;;;;;;;;;5030232;28;20107;-66
2023/08/19 03:49:51;;;;;;;26.45;17.15;;;;;;;;;;5031192;28;20057;-66
2023/08/19 03:52:21;;;;;;;24.58;16.40;;;;;;;;;;5028993;28;20473;-66
2023/08/19 03:54:50;;;;;;;25.80;17.05;;;;;;;;;;5029626;28;20292;-65
2023/08/19 03:57:17;;;;;;;26.13;16.63;;;;;;;;;;5025371;28;20060;-66
2023/08/19 03:59:49;;;;;;;24.20;16.92;;;;;;;;;;5029994;28;20053;-66
2023/08/19 04:02:17;;;;;;;26.75;17.08;;;;;;;;;;5030813;28;20041;-66
2023/08/19 04:04:57;;;;;;;24.77;16.83;;;;;;;;;;5029599;28;20049;-66
2023/08/19 04:07:24;;;;;;;22.70;15.50;;;;;;;;;;5027365;28;20068;-66
2023/08/19 04:09:52;;;;;;;23.63;15.85;;;;;;;;;;5018111;28;20404;-66
2023/08/19 04:12:19;;;;;;;22.85;15.80;;;;;;;;;;5020057;28;20046;-66
2023/08/19 04:14:48;;;;;;;26.23;16.10;;;;;;;;;;5031188;28;20492;-66
2023/08/19 04:17:15;;;;;;;25.85;15.95;;;;;;;;;;5030919;28;20620;-66
2023/08/19 04:19:42;;;;;;;25.55;16.80;;;;;;;;;;5029797;28;20052;-66
2023/08/19 04:22:10;;;;;;;24.00;17.10;;;;;;;;;;5030626;28;20409;-66
2023/08/19 04:24:37;;;;;;;24.33;17.00;;;;;;;;;;5028671;28;20057;-66
2023/08/19 04:27:05;;;;;;;29.30;16.52;;;;;;;;;;5031059;28;20088;-66
2023/08/19 04:29:33;;;;;;;27.10;17.05;;;;;;;;;;5027245;28;20053;-66
2023/08/19 04:32:02;;;;;;;25.85;16.73;;;;;;;;;;5024094;28;20050;-66
2023/08/19 04:34:29;;;;;;;26.50;16.83;;;;;;;;;;5030231;28;20084;-66
2023/08/19 04:36:57;;;;;;;24.35;15.65;;;;;;;;;;5030640;28;20041;-66
2023/08/19 04:39:24;;;;;;;27.60;16.20;;;;;;;;;;5027998;28;20060;-66
2023/08/19 04:41:51;;;;;;;24.65;16.55;;;;;;;;;;5030252;28;20574;-66
2023/08/19 04:44:19;;;;;;;24.30;16.05;;;;;;;;;;5027229;28;20049;-65
2023/08/19 04:46:47;;;;;;;24.17;16.40;;;;;;;;;;5028277;28;20041;-66
2023/08/19 04:49:15;;;;;;;24.30;15.68;;;;;;;;;;5029649;28;20045;-66
2023/08/19 04:51:43;;;;;;;24.23;16.27;;;;;;;;;;5028472;28;20057;-66
2023/08/19 04:54:10;;;;;;;22.55;15.15;;;;;;;;;;5027352;28;20049;-66
2023/08/19 04:56:37;;;;;;;22.48;15.63;;;;;;;;;;5023744;28;20038;-66
2023/08/19 04:59:05;;;;;;;23.92;15.15;;;;;;;;;;5025564;28;20060;-66
2023/08/19 05:01:32;;;;;;;25.67;15.02;;;;;;;;;;5020294;28;20158;-66
2023/08/19 05:03:59;;;;;;;26.15;15.52;;;;;;;;;;5021379;28;20049;-66
2023/08/19 05:06:28;;;;;;;21.80;15.70;;;;;;;;;;5027112;28;20084;-66
2023/08/19 05:08:54;;;;;;;22.25;14.73;;;;;;;;;;5017098;28;20049;-66
2023/08/19 05:11:21;;;;;;;23.73;15.13;;;;;;;;;;5016184;28;20049;-66
2023/08/19 05:13:48;;;;;;;20.42;14.23;;;;;;;;;;5022766;28;20420;-66
2023/08/19 05:16:16;;;;;;;24.52;14.65;;;;;;;;;;5029619;28;20048;-66
2023/08/19 05:18:43;;;;;;;21.30;15.32;;;;;;;;;;5028392;28;20049;-66
2023/08/19 05:21:10;;;;;;;20.75;15.20;;;;;;;;;;5027360;28;20046;-66
2023/08/19 05:23:39;;;;;;;20.98;14.50;;;;;;;;;;5027838;28;20045;-66
2023/08/19 05:26:06;;;;;;;19.70;14.20;;;;;;;;;;5028706;28;20065;-66
2023/08/19 05:28:33;;;;;;;22.33;14.23;;;;;;;;;;5029403;28;20058;-65
2023/08/19 05:31:00;;;;;;;23.13;14.55;;;;;;;;;;5027454;28;20496;-66
2023/08/19 05:33:27;;;;;;;20.77;13.40;;;;;;;;;;5028171;28;20055;-66
2023/08/19 05:35:55;;;;;;;22.13;14.30;;;;;;;;;;5028784;28;20134;-66
2023/08/19 05:38:22;;;;;;;20.15;13.50;;;;;;;;;;5028152;28;20057;-66
2023/08/19 05:40:50;;;;;;;18.35;13.00;;;;;;;;;;5028550;28;20049;-66
2023/08/19 05:43:18;;;;;;;22.27;13.93;;;;;;;;;;5028681;28;20042;-66
2023/08/19 05:45:45;;;;;;;20.33;13.82;;;;;;;;;;5026110;28;20511;-66
2023/08/19 05:48:12;;;;;;;19.67;13.23;;;;;;;;;;5027231;28;20053;-66
2023/08/19 05:50:40;;;;;;;27.27;13.77;;;;;;;;;;5023233;28;20132;-66
2023/08/19 05:53:07;;;;;;;19.80;13.52;;;;;;;;;;5022858;28;20160;-66
2023/08/19 05:55:34;;;;;;;21.63;14.23;;;;;;;;;;5021687;28;20049;-66
2023/08/19 05:58:03;;;;;;;24.55;14.15;;;;;;;;;;5025711;28;20051;-66
2023/08/19 06:00:30;;;;;;;18.63;13.38;;;;;;;;;;5020858;28;20049;-66
2023/08/19 06:02:58;;;;;;;21.05;13.23;;;;;;;;;;5021365;28;20041;-66
2023/08/19 06:05:25;;;;;;;19.30;13.10;;;;;;;;;;5027276;28;20053;-66
2023/08/19 06:07:52;;;;;;;20.90;13.50;;;;;;;;;;5023599;28;20092;-66
2023/08/19 06:10:19;;;;;;;20.70;13.20;;;;;;;;;;5021522;28;20053;-66
2023/08/19 06:12:47;;;;;;;21.65;14.00;;;;;;;;;;5027200;28;20053;-66
2023/08/19 06:15:15;;;;;;;18.23;12.85;;;;;;;;;;5027523;28;20493;-66
2023/08/19 06:17:42;;;;;;;19.63;13.60;;;;;;;;;;5025135;28;20416;-66
2023/08/19 06:20:10;;;;;;;20.13;12.55;;;;;;;;;;5027640;28;20045;-66
2023/08/19 06:22:37;;;;;;;19.65;13.02;;;;;;;;;;5022170;28;20056;-66
2023/08/19 06:25:04;;;;;;;20.20;13.65;;;;;;;;;;5027686;28;20093;-66
2023/08/19 06:27:32;;;;;;;20.25;12.98;;;;;;;;;;5032910;28;20072;-66
2023/08/19 06:29:59;;;;;;;19.90;12.85;;;;;;;;;;5031527;28;20424;-66
2023/08/19 06:32:28;;;;;;;19.58;13.35;;;;;;;;;;5021919;28;20129;-66
2023/08/19 06:34:55;;;;;;;16.15;12.32;;;;;;;;;;5028551;28;20041;-66
2023/08/19 06:37:25;;;;;;;16.77;11.73;;;;;;;;;;5032319;28;20053;-66
2023/08/19 06:39:54;;;;;;;18.02;12.25;;;;;;;;;;5031081;28;20404;-66
2023/08/19 06:42:21;;;;;;;15.57;11.27;;;;;;;;;;5032858;28;20049;-66
2023/08/19 06:44:52;;;;;;;19.73;12.32;;;;;;;;;;5028852;28;20045;-66
2023/08/19 06:47:22;;;;;;;21.05;11.85;;;;;;;;;;5028174;28;20045;-66
2023/08/19 06:49:51;;;;;;;16.80;11.40;;;;;;;;;;5029075;28;20500;-66
2023/08/19 06:52:19;;;;;;;14.95;11.02;;;;;;;;;;5030876;28;20053;-66
2023/08/19 06:54:46;;;;;;;16.42;11.70;;;;;;;;;;5022981;28;20050;-66
2023/08/19 06:57:18;;;;;;;16.60;11.40;;;;;;;;;;5024272;28;20046;-66
2023/08/19 06:59:49;;;;;;;18.98;11.73;;;;;;;;;;5024440;28;20052;-66
2023/08/19 07:02:17;;;;;;;15.50;11.10;;;;;;;;;;5024832;28;20054;-66
2023/08/19 07:04:46;;;;;;;18.88;10.77;;;;;;;;;;5022204;28;20053;-66
2023/08/19 07:07:21;;;;;;;16.30;11.07;;;;;;;;;;5030631;28;20095;-66
2023/08/19 07:09:52;;;;;;;14.70;10.18;;;;;;;;;;5020824;28;20141;-66
2023/08/19 07:12:20;;;;;;;13.35;9.68;;;;;;;;;;5029240;28;20045;-66
2023/08/19 07:14:47;;;;;;;19.50;11.15;;;;;;;;;;5026591;28;20492;-66
2023/08/19 07:17:15;;;;;;;14.93;11.00;;;;;;;;;;5020810;28;20049;-66
2023/08/19 07:19:43;;;;;;;15.60;9.85;;;;;;;;;;5025493;28;20049;-66
2023/08/19 07:22:11;;;;;;;13.90;10.48;;;;;;;;;;5031039;28;20049;-66
2023/08/19 07:24:42;;;;;;;16.15;10.00;;;;;;;;;;5031348;28;20056;-66
2023/08/19 07:27:11;;;;;;;12.13;9.05;;;;;;;;;;5027104;28;20505;-66
2023/08/19 07:29:42;;;;;;;14.57;9.05;;;;;;;;;;5029718;28;20068;-66
2023/08/19 07:32:10;;;;;;;16.35;9.73;;;;;;;;;;5029916;28;20052;-66
2023/08/19 07:34:37;;;;;;;16.02;9.82;;;;;;;;;;5027306;28;20103;-66
2023/08/19 07:37:05;;;;;;;18.58;9.73;;;;;;;;;;5027379;28;20437;-66
2023/08/19 07:39:32;;;;;;;14.32;9.93;;;;;;;;;;5025974;28;20049;-66
2023/08/19 07:42:01;;;;;;;11.93;9.07;;;;;;;;;;5025553;28;20481;-66
2023/08/19 07:44:30;;;;;;;15.48;9.05;;;;;;;;;;5025463;28;20053;-66
2023/08/19 07:46:57;;;;;;;15.27;9.55;;;;;;;;;;5027144;28;20049;-66
2023/08/19 07:49:24;;;;;;;11.75;9.02;;;;;;;;;;5026025;28;20500;-66
2023/08/19 07:51:51;;;;;;;12.30;8.57;;;;;;;;;;5029611;28;20065;-66
2023/08/19 07:54:21;;;;;;;12.85;9.00;;;;;;;;;;5029637;28;20057;-66
2023/08/19 07:56:51;;;;;;;11.18;8.60;;;;;;;;;;5026052;28;20049;-66
2023/08/19 07:59:19;;;;;;;12.75;8.93;;;;;;;;;;5031244;28;20045;-66
2023/08/19 08:01:47;;;;;;;14.80;8.60;;;;;;;;;;5031350;28;20082;-66
2023/08/19 08:04:14;;;;;;;14.15;8.73;;;;;;;;;;5029777;28;20233;-66
2023/08/19 08:06:41;;;;;;;12.60;8.75;;;;;;;;;;5031051;28;20045;-66
2023/08/19 08:09:08;;;;;;;16.90;8.25;;;;;;;;;;5029433;28;20045;-66
2023/08/19 08:11:36;;;;;;;12.60;7.95;;;;;;;;;;5014665;28;20474;-66
2023/08/19 08:14:03;;;;;;;12.05;7.90;;;;;;;;;;5030053;28;20511;-66
2023/08/19 08:16:31;;;;;;;11.30;8.00;;;;;;;;;;5030037;28;20536;-66
2023/08/19 08:18:59;;;;;;;12.45;7.45;;;;;;;;;;5024824;28;20053;-66
2023/08/19 08:21:26;;;;;;;10.18;7.43;;;;;;;;;;5028905;28;20041;-66
2023/08/19 08:23:54;;;;;;;10.68;7.35;;;;;;;;;;5024729;28;20045;-66
2023/08/19 08:26:22;;;;;;;12.10;7.43;;;;;;;;;;5025531;28;20180;-66
2023/08/19 08:28:49;;;;;;;12.00;7.00;;;;;;;;;;5024528;28;20057;-66
2023/08/19 08:31:17;;;;;;;12.85;7.60;;;;;;;;;;5027860;28;20582;-66
2023/08/19 08:33:45;;;;;;;10.73;7.43;;;;;;;;;;5025095;28;20644;-66
2023/08/19 08:36:12;;;;;;;11.63;7.60;;;;;;;;;;5028958;28;20049;-66
2023/08/19 08:38:40;;;;;;;12.13;7.45;;;;;;;;;;5020732;28;20520;-66
2023/08/19 08:41:07;;;;;;;13.80;7.35;;;;;;;;;;5030026;28;20052;-66
2023/08/19 08:43:35;;;;;;;13.10;7.88;;;;;;;;;;5030424;28;20400;-66
2023/08/19 08:46:02;;;;;;;10.90;8.02;;;;;;;;;;5021305;28;20520;-66
2023/08/19 08:48:31;;;;;;;11.27;8.00;;;;;;;;;;5020839;28;20049;-66
2023/08/19 08:51:00;;;;;;;11.10;7.60;;;;;;;;;;5024119;28;20062;-66
2023/08/19 08:53:28;;;;;;;11.65;7.68;;;;;;;;;;5022286;28;20045;-66
2023/08/19 08:55:56;;;;;;;11.77;7.78;;;;;;;;;;5028253;28;20416;-66
2023/08/19 08:58:23;;;;;;;13.25;8.73;;;;;;;;;;5029669;28;20519;-66
2023/08/19 09:00:51;;;;;;;15.73;8.70;;;;;;;;;;5027419;28;20054;-66
2023/08/19 09:03:19;;;;;;;11.82;8.57;;;;;;;;;;5026919;28;20057;-66
2023/08/19 09:05:48;;;;;;;14.82;8.55;;;;;;;;;;5028647;28;20148;-66
2023/08/19 09:08:18;;;;;;;12.45;9.20;;;;;;;;;;5029747;28;20045;-66
2023/08/19 09:10:47;;;;;;;12.75;9.00;;;;;;;;;;5027427;28;20156;-66
2023/08/19 09:13:17;;;;;;;15.10;8.90;;;;;;;;;;5025147;28;20052;-66
2023/08/19 09:15:44;;;;;;;14.30;9.40;;;;;;;;;;5028607;28;20041;-66
2023/08/19 09:18:11;;;;;;;15.02;10.00;;;;;;;;;;5028603;28;20425;-66
2023/08/19 09:20:40;;;;;;;14.32;8.98;;;;;;;;;;5024548;28;20057;-66
2023/08/19 09:23:07;;;;;;;13.38;9.15;;;;;;;;;;5029134;28;20115;-66
2023/08/19 09:25:37;;;;;;;15.15;9.15;;;;;;;;;;5028156;28;20045;-66
2023/08/19 09:28:05;;;;;;;18.67;9.70;;;;;;;;;;5026330;28;20057;-66
2023/08/19 09:30:35;;;;;;;12.75;8.50;;;;;;;;;;5027713;28;20042;-66
2023/08/19 09:33:06;;;;;;;14.98;9.85;;;;;;;;;;5025574;28;20060;-66
2023/08/19 09:35:37;;;;;;;14.15;9.43;;;;;;;;;;5028572;28;20049;-66
2023/08/19 09:38:05;;;;;;;12.20;9.57;;;;;;;;;;5022404;28;20061;-66
2023/08/19 09:40:32;;;;;;;12.23;9.05;;;;;;;;;;5026661;28;20049;-66
2023/08/19 09:43:01;;;;;;;12.85;9.10;;;;;;;;;;5029255;28;20065;-66
2023/08/19 09:45:29;;;;;;;13.82;8.75;;;;;;;;;;5026641;28;20512;-66
2023/08/19 09:47:56;;;;;;;13.30;8.80;;;;;;;;;;5027178;28;20050;-66
2023/08/19 09:50:24;;;;;;;10.77;8.23;;;;;;;;;;5025668;28;20431;-66
2023/08/19 09:52:55;;;;;;;12.85;8.25;;;;;;;;;;5029151;28;20180;-66
2023/08/19 09:55:23;;;;;;;12.65;9.20;;;;;;;;;;5023369;28;20053;-66
2023/08/19 09:57:51;;;;;;;13.82;8.60;;;;;;;;;;5026300;28;20608;-66
2023/08/19 10:00:20;;;;;;;13.52;8.70;;;;;;;;;;5028603;28;20124;-66
2023/08/19 10:02:47;;;;;;;12.18;8.80;;;;;;;;;;5026954;28;20057;-66
2023/08/19 10:05:14;;;;;;;14.40;8.43;;;;;;;;;;5032092;28;20049;-66
2023/08/19 10:07:44;;;;;;;16.10;9.70;;;;;;;;;;5028562;28;20049;-66
2023/08/19 10:10:12;;;;;;;13.20;9.25;;;;;;;;;;5028391;28;20052;-66
2023/08/19 10:12:41;;;;;;;13.38;9.35;;;;;;;;;;5032686;28;20061;-66
2023/08/19 10:15:10;;;;;;;22.15;10.48;;;;;;;;;;5032540;28;20053;-66
2023/08/19 10:17:40;;;;;;;17.27;10.60;;;;;;;;;;5032780;28;20463;-66
2023/08/19 10:20:11;;;;;;;15.98;10.10;;;;;;;;;;5031886;28;20050;-66
2023/08/19 10:22:41;;;;;;;14.40;10.35;;;;;;;;;;5032840;28;20485;-66
2023/08/19 10:25:09;;;;;;;15.98;10.55;;;;;;;;;;5033369;28;20151;-66
2023/08/19 10:27:37;;;;;;;14.27;10.75;;;;;;;;;;5031799;28;20063;-66
2023/08/19 10:30:28;;;;;;;13.68;10.73;;;;;;;;;;5032162;28;20046;-66
2023/08/19 10:32:56;;;;;;;20.98;11.40;;;;;;;;;;5025773;28;20081;-66
2023/08/19 10:35:24;;;;;;;18.48;11.70;;;;;;;;;;5032854;28;20054;-66
2023/08/19 10:37:51;;;;;;;17.30;12.02;;;;;;;;;;5031431;28;20088;-66
2023/08/19 10:40:22;;;;;;;20.52;12.85;;;;;;;;;;5027931;28;20120;-66
2023/08/19 10:42:54;;;;;;;21.23;13.15;;;;;;;;;;5026887;28;20060;-66
2023/08/19 10:45:21;;;;;;;19.10;13.40;;;;;;;;;;5020473;28;20053;-67
2023/08/19 10:47:52;;;;;;;19.77;14.38;;;;;;;;;;5024318;28;20045;-66
2023/08/19 10:50:21;;;;;;;21.45;15.35;;;;;;;;;;5020250;28;20068;-67
2023/08/19 10:52:58;;;;;;;26.50;15.60;;;;;;;;;;5023221;28;20046;-66
2023/08/19 10:55:25;;;;;;;28.25;17.50;;;;;;;;;;5027300;28;20045;-66
2023/08/19 10:57:52;;;;;;;27.05;17.05;;;;;;;;;;5030353;28;20049;-67
2023/08/19 11:00:23;;;;;;;24.67;17.27;;;;;;;;;;5029565;28;20132;-66
2023/08/19 11:02:50;;;;;;;25.98;17.67;;;;;;;;;;5029504;28;20084;-67
2023/08/19 11:05:26;;;;;;;27.60;18.40;;;;;;;;;;5031564;28;20107;-67
2023/08/19 11:07:54;;;;;;;26.55;17.17;;;;;;;;;;5031028;28;20053;-67
2023/08/19 11:10:22;;;;;;;30.98;17.90;;;;;;;;;;5031690;28;20049;-66
2023/08/19 11:12:50;;;;;;;28.88;16.95;;;;;;;;;;5026070;28;20060;-67
2023/08/19 11:15:24;;;;;;;29.60;18.20;;;;;;;;;;5027887;28;20058;-66
2023/08/19 11:17:51;;;;;;;30.83;19.05;;;;;;;;;;5031729;28;20068;-66
2023/08/19 11:20:19;;;;;;;31.70;19.45;;;;;;;;;;5030294;28;20516;-66
2023/08/19 11:22:48;;;;;;;27.50;17.50;;;;;;;;;;5027456;28;20485;-66
2023/08/19 11:25:15;;;;;;;27.02;14.00;;;;;;;;;;5027639;28;20041;-66
2023/08/19 11:27:42;;;;;;;22.20;12.98;;;;;;;;;;5027942;28;20132;-67
2023/08/19 11:30:10;;;;;;;19.67;11.27;;;;;;;;;;5030550;28;20053;-68
2023/08/19 11:32:38;;;;;;;17.38;10.85;;;;;;;;;;5031848;28;20049;-68
2023/08/19 11:35:05;;;;;;;15.43;10.40;;;;;;;;;;5030765;28;20056;-67
2023/08/19 11:37:33;;;;;;;19.48;10.43;;;;;;;;;;5025664;28;20444;-67
2023/08/19 11:40:06;;;;;;;17.58;10.65;;;;;;;;;;5026151;28;20378;-66
2023/08/19 11:42:33;;;;;;;17.20;10.82;;;;;;;;;;5027144;28;20099;-67
2023/08/19 11:45:00;;;;;;;15.98;9.80;;;;;;;;;;5023619;28;20045;-66
2023/08/19 11:47:33;;;;;;;14.13;8.90;;;;;;;;;;5030003;28;20052;-67
2023/08/19 11:50:01;;;;;;;13.15;8.10;;;;;;;;;;5025273;28;20136;-68
2023/08/19 11:52:28;;;;;;;13.63;8.23;;;;;;;;;;5029984;28;20060;-68
2023/08/19 11:54:59;;;;;;;12.18;7.38;;;;;;;;;;5026241;28;20045;-66
2023/08/19 11:57:32;;;;;;;12.57;7.47;;;;;;;;;;5030200;28;20049;-67
2023/08/19 11:59:59;;;;;;;11.93;6.70;;;;;;;;;;5029739;28;20168;-67
2023/08/19 12:02:27;;;;;;;8.65;5.57;;;;;;;;;;5031067;28;20049;-66
2023/08/19 12:04:54;;;;;;;9.32;5.20;;;;;;;;;;5030868;28;20374;-66
2023/08/19 12:07:26;;;;;;;11.73;5.25;;;;;;;;;;5030364;28;20060;-67
2023/08/19 12:09:58;;;;;;;10.20;4.72;;;;;;;;;;5025345;28;20467;-68
2023/08/19 12:12:25;;;;;;;9.65;4.18;;;;;;;;;;5026634;28;20056;-66
2023/08/19 12:14:54;;;;;;;6.00;3.88;;;;;;;;;;5029687;28;20056;-68
2023/08/19 12:17:21;;;;;;;6.00;4.00;;;;;;;;;;5029166;28;20056;-66
2023/08/19 12:19:48;;;;;;;5.72;3.60;;;;;;;;;;5029622;28;20501;-67
2023/08/19 12:22:16;;;;;;;5.13;3.28;;;;;;;;;;5029480;28;20133;-67
2023/08/19 12:24:43;;;;;;;6.40;2.70;;;;;;;;;;5027255;28;20393;-66
2023/08/19 12:27:10;;;;;;;5.65;2.80;;;;;;;;;;5030010;28;20064;-68
2023/08/19 12:29:38;;;;;;;5.00;2.38;;;;;;;;;;5030044;28;20046;-66
2023/08/19 12:32:06;;;;;;;3.60;2.20;;;;;;;;;;5025479;28;20049;-67
2023/08/19 12:34:34;;;;;;;3.10;1.73;;;;;;;;;;5024746;28;20050;-68
2023/08/19 12:37:01;;;;;;;2.92;1.67;;;;;;;;;;5024070;28;20050;-67
2023/08/19 12:39:28;;;;;;;5.72;2.30;;;;;;;;;;5021563;28;20501;-67
2023/08/19 12:41:55;;;;;;;7.50;2.40;;;;;;;;;;5024794;28;20052;-68
2023/08/19 12:44:22;;;;;;;5.47;2.33;;;;;;;;;;5025708;28;20493;-67
2023/08/19 12:46:51;;;;;;;5.03;2.30;;;;;;;;;;5025256;28;20052;-66
2023/08/19 12:49:19;;;;;;;5.18;2.40;;;;;;;;;;5021577;28;20555;-66
2023/08/19 12:51:47;;;;;;;4.93;2.22;;;;;;;;;;5023118;28;20417;-66
2023/08/19 12:54:14;;;;;;;6.15;1.98;;;;;;;;;;5028424;28;20073;-67
2023/08/19 12:56:42;;;;;;;4.32;1.98;;;;;;;;;;5021196;28;20046;-67
2023/08/19 12:59:09;;;;;;;3.90;2.47;;;;;;;;;;5026278;28;20435;-68
2023/08/19 13:01:38;;;;;;;4.35;1.80;;;;;;;;;;5023963;28;20049;-66
2023/08/19 13:04:05;;;;;;;3.40;1.67;;;;;;;;;;5018138;28;20077;-67
2023/08/19 13:06:34;;;;;;;3.00;1.23;;;;;;;;;;5024759;28;20107;-67
2023/08/19 13:09:01;;;;;;;3.30;1.58;;;;;;;;;;5025267;28;20530;-68
2023/08/19 13:11:29;;;;;;;3.22;1.58;;;;;;;;;;5020954;28;20506;-66
2023/08/19 13:13:56;;;;;;;5.13;1.55;;;;;;;;;;5013563;28;20057;-67
2023/08/19 13:16:23;;;;;;;4.07;1.83;;;;;;;;;;5025614;28;20064;-67
2023/08/19 13:18:50;;;;;;;2.75;1.60;;;;;;;;;;5024408;28;20485;-67
2023/08/19 13:21:17;;;;;;;4.35;1.83;;;;;;;;;;5028063;28;20056;-67
2023/08/19 13:23:46;;;;;;;3.47;1.70;;;;;;;;;;5023176;28;20054;-67
2023/08/19 13:26:13;;;;;;;3.92;1.92;;;;;;;;;;5026554;28;20472;-66
2023/08/19 13:28:41;;;;;;;4.78;1.92;;;;;;;;;;5027064;28;20053;-67
2023/08/19 13:31:08;;;;;;;4.50;2.00;;;;;;;;;;5029250;28;20512;-67
2023/08/19 13:33:35;;;;;;;4.07;1.77;;;;;;;;;;5023139;28;20085;-67
2023/08/19 13:36:03;;;;;;;7.15;2.00;;;;;;;;;;5025283;28;20053;-66
2023/08/19 13:38:30;;;;;;;6.97;2.05;;;;;;;;;;5028528;28;20068;-66
2023/08/19 13:40:58;;;;;;;7.97;1.60;;;;;;;;;;5028840;28;20072;-67
2023/08/19 13:43:26;;;;;;;4.70;1.77;;;;;;;;;;5031634;28;20524;-67
2023/08/19 13:45:53;;;;;;;5.40;2.20;;;;;;;;;;5031394;28;20451;-67
2023/08/19 13:48:20;;;;;;;6.10;2.22;;;;;;;;;;5031257;28;20052;-67
2023/08/19 13:50:48;;;;;;;7.55;2.10;;;;;;;;;;5030726;28;20061;-67
2023/08/19 13:53:15;;;;;;;5.55;2.05;;;;;;;;;;5032354;28;20041;-67
2023/08/19 13:55:43;;;;;;;7.90;2.80;;;;;;;;;;5030861;28;20132;-67
2023/08/19 13:58:12;;;;;;;7.20;2.75;;;;;;;;;;5028951;28;20080;-66
2023/08/19 14:00:39;;;;;;;8.00;2.72;;;;;;;;;;5024559;28;20529;-67
2023/08/19 14:03:06;;;;;;;5.68;3.08;;;;;;;;;;5023523;28;20488;-67
2023/08/19 14:05:34;;;;;;;5.28;2.83;;;;;;;;;;5029204;28;20085;-67
2023/08/19 14:08:02;;;;;;;8.70;3.67;;;;;;;;;;5019775;28;20132;-66
2023/08/19 14:10:30;;;;;;;10.25;3.97;;;;;;;;;;5023765;28;20037;-66
2023/08/19 14:12:57;;;;;;;7.10;3.20;;;;;;;;;;5028266;28;20045;-67
2023/08/19 14:15:26;;;;;;;7.00;3.17;;;;;;;;;;5023759;28;20501;-67
2023/08/19 14:17:54;;;;;;;6.85;3.13;;;;;;;;;;5023673;28;20409;-67
2023/08/19 14:20:22;;;;;;;7.07;3.50;;;;;;;;;;5027089;28;20053;-66
2023/08/19 14:22:49;;;;;;;6.35;3.33;;;;;;;;;;5022497;28;20104;-67
2023/08/19 14:25:17;;;;;;;6.88;3.85;;;;;;;;;;5023256;28;20053;-66
2023/08/19 14:27:44;;;;;;;11.38;4.20;;;;;;;;;;5025961;28;20046;-66